createdAt,value
2022-09-02T00:00:45.374Z,0.85
2022-09-02T00:03:54.259Z,0.70
2022-09-02T00:07:00.113Z,0.90
2022-09-02T00:10:06.454Z,1.02
2022-09-02T00:13:19.613Z,0.80
2022-09-02T00:16:26.084Z,1.45
2022-09-02T00:19:33.440Z,0.70
2022-09-02T00:22:38.900Z,0.80
2022-09-02T00:25:45.616Z,0.80
2022-09-02T00:28:56.224Z,0.52
2022-09-02T00:32:02.003Z,1.73
2022-09-02T00:35:10.653Z,0.70
2022-09-02T00:38:16.145Z,1.65
2022-09-02T00:41:25.175Z,1.60
2022-09-02T00:44:31.818Z,0.80
2022-09-02T00:47:37.959Z,0.90
2022-09-02T00:50:44.707Z,0.70
2022-09-02T00:53:51.001Z,0.90
2022-09-02T00:56:56.639Z,0.75
2022-09-02T01:00:11.147Z,0.80
2022-09-02T01:03:23.024Z,1.55
2022-09-02T01:06:33.060Z,0.63
2022-09-02T01:09:39.314Z,1.08
2022-09-02T01:12:44.911Z,1.02
2022-09-02T01:15:53.932Z,0.60
2022-09-02T01:19:02.799Z,0.80
2022-09-02T01:22:17.441Z,0.75
2022-09-02T01:25:25.921Z,0.82
2022-09-02T01:28:33.476Z,1.95
2022-09-02T01:31:39.295Z,0.80
2022-09-02T01:34:44.906Z,0.73
2022-09-02T01:37:55.995Z,1.55
2022-09-02T01:41:01.605Z,0.80
2022-09-02T01:44:08.670Z,0.75
2022-09-02T01:47:16.508Z,0.70
2022-09-02T01:50:23.614Z,0.70
2022-09-02T01:53:31.927Z,0.95
2022-09-02T01:56:38.038Z,0.80
2022-09-02T01:59:44.693Z,1.27
2022-09-02T02:02:50.562Z,0.80
2022-09-02T02:05:56.393Z,0.80
2022-09-02T02:09:03.545Z,0.70
2022-09-02T02:12:13.682Z,0.70
2022-09-02T02:18:27.911Z,1.13
2022-09-02T02:21:33.766Z,1.45
2022-09-02T02:24:40.614Z,0.57
2022-09-02T02:27:46.751Z,0.75
2022-09-02T02:30:52.547Z,0.98
2022-09-02T02:33:58.091Z,0.70
2022-09-02T02:37:03.643Z,0.70
2022-09-02T02:40:12.969Z,1.35
2022-09-02T02:43:18.501Z,0.50
2022-09-02T02:46:24.069Z,1.00
2022-09-02T02:49:30.057Z,2.05
2022-09-02T02:52:35.418Z,0.60
2022-09-02T02:55:42.538Z,0.90
2022-09-02T02:58:48.494Z,2.50
2022-09-02T03:01:54.171Z,0.60
2022-09-02T03:04:59.539Z,0.75
2022-09-02T03:08:06.181Z,0.70
2022-09-02T03:11:18.195Z,0.70
2022-09-02T03:14:24.247Z,1.05
2022-09-02T03:17:29.838Z,0.90
2022-09-02T03:20:35.513Z,1.00
2022-09-02T03:23:43.864Z,0.68
2022-09-02T03:26:50.612Z,0.70
2022-09-02T03:29:57.006Z,0.70
2022-09-02T03:33:05.329Z,0.65
2022-09-02T03:36:23.108Z,0.75
2022-09-02T03:39:29.230Z,0.85
2022-09-02T03:42:35.879Z,0.60
2022-09-02T03:45:41.933Z,0.90
2022-09-02T03:48:52.008Z,0.60
2022-09-02T03:51:58.690Z,2.40
2022-09-02T03:55:04.376Z,2.70
2022-09-02T03:58:17.490Z,0.80
2022-09-02T04:01:27.843Z,0.70
2022-09-02T04:04:34.698Z,0.70
2022-09-02T04:07:40.096Z,0.65
2022-09-02T04:10:48.361Z,0.73
2022-09-02T04:13:55.633Z,0.80
2022-09-02T04:17:05.159Z,0.63
2022-09-02T04:20:14.300Z,0.80
2022-09-02T04:23:20.294Z,0.77
2022-09-02T04:26:26.718Z,0.73
2022-09-02T04:29:35.138Z,0.90
2022-09-02T04:32:41.104Z,0.80
2022-09-02T04:35:50.012Z,0.60
2022-09-02T04:38:57.120Z,0.80
2022-09-02T04:42:05.842Z,0.90
2022-09-02T04:45:14.638Z,1.88
2022-09-02T04:48:20.132Z,1.40
2022-09-02T04:51:28.250Z,0.70
2022-09-02T04:54:37.491Z,0.80
2022-09-02T04:57:44.810Z,0.80
2022-09-02T05:00:53.551Z,0.70
2022-09-02T05:04:02.871Z,0.85
2022-09-02T05:07:14.178Z,0.90
2022-09-02T05:10:24.062Z,1.00
2022-09-02T05:13:30.251Z,0.80
2022-09-02T05:16:41.354Z,1.85
2022-09-02T05:19:51.234Z,0.75
2022-09-02T05:22:56.498Z,0.60
2022-09-02T05:26:05.447Z,1.05
2022-09-02T05:29:11.611Z,1.23
2022-09-02T05:32:19.424Z,1.95
2022-09-02T05:35:26.839Z,0.90
2022-09-02T05:38:32.876Z,1.55
2022-09-02T05:41:39.759Z,0.73
2022-09-02T05:44:48.833Z,1.05
2022-09-02T05:47:59.461Z,0.90
2022-09-02T05:51:07.059Z,0.85
2022-09-02T05:54:17.496Z,0.88
2022-09-02T05:57:23.764Z,0.80
2022-09-02T06:00:40.262Z,0.98
2022-09-02T06:03:48.002Z,1.80
2022-09-02T06:06:54.446Z,2.53
2022-09-02T06:10:01.881Z,0.80
2022-09-02T06:13:08.168Z,0.80
2022-09-02T06:16:16.783Z,1.08
2022-09-02T06:19:30.563Z,0.80
2022-09-02T06:22:37.007Z,0.75
2022-09-02T06:25:45.018Z,0.70
2022-09-02T06:28:51.361Z,2.13
2022-09-02T06:31:57.058Z,2.45
2022-09-02T06:35:08.165Z,0.80
2022-09-02T06:38:19.931Z,0.80
2022-09-02T06:41:30.359Z,0.68
2022-09-02T06:44:38.642Z,1.05
2022-09-02T06:47:44.152Z,3.28
2022-09-02T06:50:51.555Z,2.65
2022-09-02T06:53:57.425Z,1.65
2022-09-02T06:57:06.057Z,0.85
2022-09-02T07:00:17.839Z,0.50
2022-09-02T07:03:40.925Z,0.73
2022-09-02T07:06:50.121Z,1.00
2022-09-02T07:09:56.798Z,1.08
2022-09-02T07:13:02.209Z,0.60
2022-09-02T07:16:08.276Z,2.22
2022-09-02T07:19:19.886Z,2.38
2022-09-02T07:22:27.575Z,0.60
2022-09-02T07:25:33.190Z,0.68
2022-09-02T07:28:38.469Z,0.60
2022-09-02T07:31:48.039Z,1.67
2022-09-02T07:34:56.467Z,0.57
2022-09-02T07:38:03.504Z,0.80
2022-09-02T07:41:13.268Z,0.70
2022-09-02T07:44:21.350Z,0.73
2022-09-02T07:47:28.735Z,1.45
2022-09-02T07:50:36.074Z,0.70
2022-09-02T07:53:45.167Z,2.53
2022-09-02T07:56:50.978Z,0.50
2022-09-02T07:59:57.511Z,1.75
2022-09-02T08:03:03.690Z,0.60
2022-09-02T08:06:17.185Z,0.50
2022-09-02T08:09:29.538Z,0.75
2022-09-02T08:12:35.511Z,1.20
2022-09-02T08:15:41.318Z,1.45
2022-09-02T08:18:46.719Z,0.90
2022-09-02T08:21:52.084Z,1.00
2022-09-02T08:24:59.138Z,0.90
2022-09-02T08:28:05.072Z,1.00
2022-09-02T08:31:10.823Z,0.93
2022-09-02T08:34:16.193Z,0.90
2022-09-02T08:37:22.099Z,0.73
2022-09-02T08:40:34.325Z,0.73
2022-09-02T08:43:42.659Z,0.70
2022-09-02T08:46:48.893Z,0.90
2022-09-02T08:49:58.262Z,1.35
2022-09-02T08:53:10.156Z,0.60
2022-09-02T08:56:18.680Z,0.80
2022-09-02T08:59:27.363Z,0.65
2022-09-02T09:02:46.643Z,0.60
2022-09-02T09:06:01.601Z,0.80
2022-09-02T09:09:15.523Z,1.02
2022-09-02T09:12:33.797Z,0.85
2022-09-02T09:15:45.549Z,1.10
2022-09-02T09:19:00.815Z,0.98
2022-09-02T09:22:06.476Z,1.10
2022-09-02T09:25:16.234Z,0.60
2022-09-02T09:28:23.721Z,0.63
2022-09-02T09:31:32.503Z,0.73
2022-09-02T09:35:07.935Z,1.52
2022-09-02T09:38:16.670Z,0.80
2022-09-02T09:41:25.198Z,1.00
2022-09-02T09:44:46.923Z,0.77
2022-09-02T09:48:19.667Z,1.00
2022-09-02T09:51:25.837Z,0.70
2022-09-02T09:54:31.192Z,0.80
2022-09-02T09:57:37.679Z,0.80
2022-09-02T10:00:44.638Z,0.63
2022-09-02T10:03:53.634Z,0.52
2022-09-02T10:06:59.307Z,0.85
2022-09-02T10:10:19.922Z,1.33
2022-09-02T10:13:27.295Z,1.65
2022-09-02T10:16:52.651Z,0.70
2022-09-02T10:20:05.056Z,3.55
2022-09-02T10:23:22.598Z,0.60
2022-09-02T10:26:35.713Z,1.08
2022-09-02T10:29:53.747Z,0.88
2022-09-02T10:33:17.367Z,0.85
2022-09-02T10:36:29.872Z,0.98
2022-09-02T10:39:54.433Z,0.50
2022-09-02T10:43:06.830Z,0.50
2022-09-02T10:46:22.931Z,1.83
2022-09-02T10:50:00.461Z,3.03
2022-09-02T10:53:41.979Z,0.95
2022-09-02T10:56:51.032Z,0.80
2022-09-02T11:00:01.885Z,2.10
2022-09-02T11:03:14.508Z,0.40
2022-09-02T11:06:31.698Z,0.70
2022-09-02T11:09:48.340Z,0.60
2022-09-02T11:13:01.622Z,0.82
2022-09-02T11:16:15.209Z,0.50
2022-09-02T11:19:24.857Z,0.63
2022-09-02T11:22:39.511Z,0.57
2022-09-02T11:25:53.748Z,1.38
2022-09-02T11:29:04.312Z,1.00
2022-09-02T11:32:18.526Z,0.40
2022-09-02T11:35:27.458Z,0.60
2022-09-02T11:38:38.538Z,0.80
2022-09-02T11:42:19.991Z,2.42
2022-09-02T11:45:41.701Z,0.60
2022-09-02T11:49:10.040Z,2.47
2022-09-02T11:52:32.129Z,0.43
2022-09-02T11:55:42.315Z,0.85
2022-09-02T11:58:52.588Z,1.10
2022-09-02T12:01:58.881Z,0.47
2022-09-02T12:05:46.838Z,0.50
2022-09-02T12:09:11.274Z,0.50
2022-09-02T12:13:09.473Z,2.20
2022-09-02T12:16:45.160Z,0.80
2022-09-02T12:19:50.570Z,0.60
2022-09-02T12:22:56.226Z,0.60
2022-09-02T12:26:06.539Z,0.50
2022-09-02T12:29:32.671Z,0.80
2022-09-02T12:33:09.787Z,0.50
2022-09-02T12:36:48.342Z,0.73
2022-09-02T12:39:57.098Z,0.50
2022-09-02T12:43:06.567Z,0.70
2022-09-02T12:46:22.984Z,0.60
2022-09-02T12:49:49.621Z,0.50
2022-09-02T12:53:31.392Z,0.52
2022-09-02T12:56:36.708Z,2.05
2022-09-02T12:59:43.078Z,0.70
2022-09-02T13:03:04.541Z,0.50
2022-09-02T13:06:18.672Z,2.83
2022-09-02T13:09:43.251Z,0.50
2022-09-02T13:13:20.995Z,0.40
2022-09-02T13:16:40.021Z,0.80
2022-09-02T13:20:34.774Z,0.70
2022-09-02T13:24:23.235Z,0.60
2022-09-02T13:28:14.870Z,0.57
2022-09-02T13:31:22.100Z,0.47
2022-09-02T13:34:27.435Z,0.68
2022-09-02T13:37:37.052Z,0.70
2022-09-02T13:40:46.272Z,0.82
2022-09-02T13:44:08.062Z,0.90
2022-09-02T13:47:17.762Z,0.50
2022-09-02T13:50:25.199Z,0.80
2022-09-02T13:53:45.788Z,1.13
2022-09-02T13:57:05.505Z,0.60
2022-09-02T14:00:17.494Z,0.70
2022-09-02T14:03:23.899Z,0.80
2022-09-02T14:06:33.309Z,1.10
2022-09-02T14:09:41.329Z,0.85
2022-09-02T14:12:47.259Z,0.60
2022-09-02T14:15:52.616Z,0.60
2022-09-02T14:19:14.623Z,0.80
2022-09-02T14:22:29.594Z,1.17
2022-09-02T14:25:39.423Z,0.65
2022-09-02T14:28:52.551Z,1.00
2022-09-02T14:32:15.270Z,0.70
2022-09-02T14:35:24.215Z,1.40
2022-09-02T14:38:34.040Z,0.70
2022-09-02T14:41:47.586Z,0.60
2022-09-02T14:44:52.895Z,0.70
2022-09-02T14:48:01.561Z,0.65
2022-09-02T14:51:08.422Z,1.35
2022-09-02T14:54:14.201Z,1.10
2022-09-02T14:57:28.024Z,1.75
2022-09-02T15:00:34.683Z,2.58
2022-09-02T15:03:40.166Z,0.85
2022-09-02T15:06:45.707Z,0.60
2022-09-02T15:09:52.624Z,0.77
2022-09-02T15:12:59.847Z,1.00
2022-09-02T15:16:05.849Z,0.40
2022-09-02T15:19:11.658Z,0.68
2022-09-02T15:22:18.276Z,0.73
2022-09-02T15:25:23.542Z,3.92
2022-09-02T15:28:31.041Z,1.23
2022-09-02T15:31:36.646Z,0.60
2022-09-02T15:34:41.973Z,0.93
2022-09-02T15:37:51.118Z,2.53
2022-09-02T15:40:56.959Z,3.13
2022-09-02T15:44:07.304Z,0.90
2022-09-02T15:47:14.046Z,1.70
2022-09-02T15:50:20.668Z,1.30
2022-09-02T15:53:25.992Z,1.00
2022-09-02T15:56:33.321Z,0.90
2022-09-02T15:59:40.142Z,0.60
2022-09-02T16:02:45.509Z,1.30
2022-09-02T16:05:51.037Z,1.38
2022-09-02T16:08:56.770Z,1.40
2022-09-02T16:12:02.117Z,1.70
2022-09-02T16:15:11.339Z,2.03
2022-09-02T16:18:17.199Z,1.00
2022-09-02T16:21:23.561Z,1.20
2022-09-02T16:24:30.017Z,3.30
2022-09-02T16:27:53.574Z,2.65
2022-09-02T16:31:00.411Z,1.90
2022-09-02T16:34:08.020Z,5.90
2022-09-02T16:37:13.401Z,3.80
2022-09-02T16:40:21.596Z,1.20
2022-09-02T16:43:27.322Z,2.33
2022-09-02T16:46:36.181Z,1.30
2022-09-02T16:49:41.455Z,1.02
2022-09-02T16:52:47.302Z,0.80
2022-09-02T16:55:52.526Z,0.70
2022-09-02T16:59:01.701Z,1.02
2022-09-02T17:02:08.652Z,1.10
2022-09-02T17:05:17.399Z,1.10
2022-09-02T17:08:23.116Z,1.17
2022-09-02T17:11:32.814Z,0.90
2022-09-02T17:14:38.112Z,0.95
2022-09-02T17:17:44.684Z,1.42
2022-09-02T17:20:49.963Z,0.80
2022-09-02T17:23:56.153Z,0.98
2022-09-02T17:27:02.112Z,0.95
2022-09-02T17:30:10.905Z,0.98
2022-09-02T17:33:18.735Z,0.80
2022-09-02T17:36:26.061Z,1.20
2022-09-02T17:39:31.784Z,1.55
2022-09-02T17:42:37.250Z,1.67
2022-09-02T17:45:42.758Z,2.50
2022-09-02T17:49:15.342Z,1.88
2022-09-02T17:52:18.633Z,2.20
2022-09-02T17:55:23.881Z,1.77
2022-09-02T17:58:37.988Z,1.85
2022-09-02T18:01:59.471Z,2.03
2022-09-02T18:05:16.998Z,3.65
2022-09-02T18:08:33.230Z,1.60
2022-09-02T18:11:38.955Z,4.40
2022-09-02T18:14:48.918Z,3.35
2022-09-02T18:17:54.859Z,2.97
2022-09-02T18:21:09.686Z,2.90
2022-09-02T18:24:26.142Z,3.15
2022-09-02T18:27:42.830Z,2.90
2022-09-02T18:30:54.840Z,3.70
2022-09-02T18:34:12.614Z,2.60
2022-09-02T18:37:32.033Z,2.40
2022-09-02T18:40:48.249Z,2.17
2022-09-02T18:44:09.297Z,2.10
2022-09-02T18:47:20.522Z,2.50
2022-09-02T18:50:49.003Z,2.42
2022-09-02T18:54:00.546Z,2.10
2022-09-02T18:57:08.699Z,1.85
2022-09-02T19:00:15.266Z,2.05
2022-09-02T19:03:20.561Z,1.65
2022-09-02T19:06:28.899Z,1.40
2022-09-02T19:09:34.535Z,2.78
2022-09-02T19:12:40.535Z,1.45
2022-09-02T19:15:45.926Z,2.33
2022-09-02T19:18:51.577Z,1.40
2022-09-02T19:21:59.859Z,1.30
2022-09-02T19:25:12.074Z,1.40
2022-09-02T19:28:18.708Z,1.40
2022-09-02T19:31:28.372Z,1.20
2022-09-02T19:34:37.061Z,1.45
2022-09-02T19:37:44.819Z,1.30
2022-09-02T19:40:52.142Z,1.10
2022-09-02T19:43:58.215Z,1.10
2022-09-02T19:50:29.030Z,1.30
2022-09-02T19:53:36.801Z,1.10
2022-09-02T19:56:43.719Z,1.30
2022-09-02T19:59:48.918Z,1.10
2022-09-02T20:02:54.998Z,1.17
2022-09-02T20:06:00.247Z,1.92
2022-09-02T20:09:07.076Z,1.73
2022-09-02T20:12:14.342Z,4.07
2022-09-02T20:15:20.592Z,1.75
2022-09-02T20:18:27.991Z,2.88
2022-09-02T20:21:43.200Z,1.58
2022-09-02T20:24:48.502Z,2.88
2022-09-02T20:28:07.749Z,2.33
2022-09-02T20:31:28.575Z,4.35
2022-09-02T20:34:53.224Z,1.50
2022-09-02T20:38:07.473Z,2.63
2022-09-02T20:41:26.305Z,1.67
2022-09-02T20:44:51.050Z,4.45
2022-09-02T20:48:12.571Z,5.28
2022-09-02T20:51:23.170Z,2.15
2022-09-02T20:54:39.421Z,3.03
2022-09-02T21:01:37.424Z,3.47
2022-09-02T21:04:47.553Z,2.40
2022-09-02T21:08:00.973Z,2.50
2022-09-02T21:11:13.059Z,1.98
2022-09-02T21:14:24.807Z,3.08
2022-09-02T21:17:41.286Z,2.45
2022-09-02T21:20:54.738Z,1.40
2022-09-02T21:24:06.868Z,2.25
2022-09-02T21:27:19.553Z,6.13
2022-09-02T21:30:28.536Z,1.95
2022-09-02T21:33:37.569Z,5.07
2022-09-02T21:36:43.493Z,2.00
2022-09-02T21:39:55.174Z,1.60
2022-09-02T21:43:15.494Z,2.47
2022-09-02T21:46:30.722Z,1.63
2022-09-02T21:50:03.620Z,1.40
2022-09-02T21:53:19.159Z,1.70
2022-09-02T21:56:45.470Z,1.60
2022-09-02T22:00:01.411Z,1.35
2022-09-02T22:03:17.269Z,2.05
2022-09-02T22:06:29.930Z,6.32
2022-09-02T22:09:35.779Z,4.75
2022-09-02T22:12:48.862Z,1.33
2022-09-02T22:16:03.231Z,1.20
2022-09-02T22:19:10.116Z,1.48
2022-09-02T22:22:24.588Z,5.47
2022-09-02T22:25:32.782Z,3.47
2022-09-02T22:28:44.090Z,4.82
2022-09-02T22:31:54.118Z,1.60
2022-09-02T22:35:08.671Z,5.57
2022-09-02T22:38:25.793Z,1.20
2022-09-02T22:41:46.033Z,1.95
2022-09-02T22:45:14.784Z,4.53
2022-09-02T22:48:41.871Z,5.28
2022-09-02T22:52:07.545Z,4.70
2022-09-02T22:55:15.014Z,3.58
2022-09-02T22:58:32.250Z,3.20
2022-09-02T23:01:53.751Z,7.32
2022-09-02T23:05:37.022Z,2.55
2022-09-02T23:08:44.674Z,3.67
2022-09-02T23:12:02.407Z,6.30
2022-09-02T23:15:21.405Z,8.57
2022-09-02T23:18:37.938Z,10.70
2022-09-02T23:21:51.199Z,8.35
2022-09-02T23:25:03.582Z,5.00
2022-09-02T23:28:17.422Z,9.25
2022-09-02T23:31:31.341Z,3.97
2022-09-02T23:35:12.542Z,5.93
2022-09-02T23:38:45.101Z,6.22
2022-09-02T23:41:50.758Z,10.95
2022-09-02T23:45:06.203Z,6.55
2022-09-02T23:48:37.153Z,7.15
2022-09-02T23:51:55.853Z,2.08
2022-09-02T23:55:07.971Z,3.45
2022-09-02T23:58:34.467Z,8.05
